Tasman Sea — WDB5559 — position and weather

sailwx.info

Track history (hours):
 
Tides and Currents Weather Stations Pressure Air Temp Water Temp Dewpoint Dewpoint Depression Visibility Wind Speed Wind Dir Waves Ship Positions

Tasman Sea

Owner: Kirby Offshore Marine, LLC, Staten Island, NY. More information available from US FCC via Universal Licensing System and Coast Guard Vessel Documentation Center.

Last reported at 2015-Mar-03 10:33 UTC. Time now 2015-Mar-03 11:18 UTC.
Position N 40°40' W 074°04'.

Length 38 m; draft 5 m.

Type: Tug. MMSI: 366910960.

Date/timePositionNaut miles runAvg speedWind from/ knotsBaromVisibWave heightAir tempDewpointWater temp
2015-Mar-03 10:33N 40°40' W 074°04'0 0.0
2015-Mar-03 09:33N 40°40' W 074°04'5 4.9
2015-Mar-03 08:34N 40°44' W 074°01'  
2015-Feb-27 23:23N 41°02' W 073°53'10 7.6
2015-Feb-27 22:05N 40°52' W 073°56'4 7.9
2015-Feb-27 21:33N 40°48' W 073°59'8 7.8
2015-Feb-27 20:34N 40°41' W 074°02'2 2.1
2015-Feb-27 19:34N 40°40' W 074°04'0 0.0
2015-Feb-27 18:34N 40°40' W 074°04'0 0.0
2015-Feb-27 17:34N 40°40' W 074°04'0 0.0
2015-Feb-27 16:34N 40°40' W 074°04'1 0.8
2015-Feb-27 15:33N 40°39' W 074°04'2 2.3
2015-Feb-27 14:33N 40°39' W 074°07'3 2.4
2015-Feb-27 13:31N 40°39' W 074°10'0 0.0
2015-Feb-27 12:31N 40°39' W 074°10'0 0.0
2015-Feb-27 11:31N 40°39' W 074°10'3 2.0
2015-Feb-27 10:13N 40°39' W 074°07'0 0.0
2015-Feb-27 09:31N 40°39' W 074°07'0 0.0
2015-Feb-27 08:31N 40°39' W 074°07'0 0.0
2015-Feb-27 07:31N 40°39' W 074°07'0 0.0
2015-Feb-27 06:31N 40°39' W 074°07'0 0.0
2015-Feb-27 05:31N 40°39' W 074°07'0 0.0
2015-Feb-27 04:31N 40°39' W 074°07'0 0.0
2015-Feb-27 03:31N 40°39' W 074°07'0 0.0
2015-Feb-27 02:31N 40°39' W 074°07'0 0.0
2015-Feb-27 00:25N 40°39' W 074°07'0 0.0
2015-Feb-26 23:31N 40°39' W 074°07'0 0.0
2015-Feb-26 22:25N 40°39' W 074°07'0 0.0
2015-Feb-26 21:28N 40°39' W 074°07'0 0.0
2015-Feb-26 20:16N 40°39' W 074°07'0 0.0
2015-Feb-26 19:19N 40°39' W 074°07'0 0.0
2015-Feb-26 18:31N 40°39' W 074°07'0 0.0
2015-Feb-26 17:31N 40°39' W 074°07'0 0.0
2015-Feb-26 16:31N 40°39' W 074°07'0 0.0
2015-Feb-26 15:31N 40°39' W 074°07'0 0.0
2015-Feb-26 14:28N 40°39' W 074°07'0 0.0
2015-Feb-26 13:31N 40°39' W 074°07'0 0.0
2015-Feb-26 12:33N 40°39' W 074°07'0 0.0
2015-Feb-26 11:33N 40°39' W 074°07'0 0.0
2015-Feb-26 10:32N 40°39' W 074°07'0 0.0
2015-Feb-26 09:32N 40°39' W 074°07'0 0.0
2015-Feb-26 08:31N 40°39' W 074°07'0 0.0
2015-Feb-26 07:31N 40°39' W 074°07'3 2.6
2015-Feb-26 06:33N 40°39' W 074°03'7 6.6
2015-Feb-26 05:33N 40°46' W 074°01'10 4.9
2015-Feb-26 03:28N 40°55' W 073°55'  
Track history (hours):
 
Tides and Currents Weather Stations Pressure Air Temp Water Temp Dewpoint Dewpoint Depression Visibility Wind Speed Wind Dir Waves Ship Positions

Tasman Sea

Owner: Kirby Offshore Marine, LLC, Staten Island, NY. More information available from US FCC via Universal Licensing System and Coast Guard Vessel Documentation Center.

Last reported at 2015-Mar-03 10:33 UTC. Time now 2015-Mar-03 11:18 UTC.
Position N 40°40' W 074°04'.

Length 38 m; draft 5 m.

Type: Tug. MMSI: 366910960.

Date/timePositionNaut miles runAvg speedWind from/ knotsBaromVisibWave heightAir tempDewpointWater temp
2015-Mar-03 10:33N 40°40' W 074°04'0 0.0
2015-Mar-03 09:33N 40°40' W 074°04'5 4.9
2015-Mar-03 08:34N 40°44' W 074°01'  
2015-Feb-27 23:23N 41°02' W 073°53'10 7.6
2015-Feb-27 22:05N 40°52' W 073°56'4 7.9
2015-Feb-27 21:33N 40°48' W 073°59'8 7.8
2015-Feb-27 20:34N 40°41' W 074°02'2 2.1
2015-Feb-27 19:34N 40°40' W 074°04'0 0.0
2015-Feb-27 18:34N 40°40' W 074°04'0 0.0
2015-Feb-27 17:34N 40°40' W 074°04'0 0.0
2015-Feb-27 16:34N 40°40' W 074°04'1 0.8
2015-Feb-27 15:33N 40°39' W 074°04'2 2.3
2015-Feb-27 14:33N 40°39' W 074°07'3 2.4
2015-Feb-27 13:31N 40°39' W 074°10'0 0.0
2015-Feb-27 12:31N 40°39' W 074°10'0 0.0
2015-Feb-27 11:31N 40°39' W 074°10'3 2.0
2015-Feb-27 10:13N 40°39' W 074°07'0 0.0
2015-Feb-27 09:31N 40°39' W 074°07'0 0.0
2015-Feb-27 08:31N 40°39' W 074°07'0 0.0
2015-Feb-27 07:31N 40°39' W 074°07'0 0.0
2015-Feb-27 06:31N 40°39' W 074°07'0 0.0
2015-Feb-27 05:31N 40°39' W 074°07'0 0.0
2015-Feb-27 04:31N 40°39' W 074°07'0 0.0
2015-Feb-27 03:31N 40°39' W 074°07'0 0.0
2015-Feb-27 02:31N 40°39' W 074°07'0 0.0
2015-Feb-27 00:25N 40°39' W 074°07'0 0.0
2015-Feb-26 23:31N 40°39' W 074°07'0 0.0
2015-Feb-26 22:25N 40°39' W 074°07'0 0.0
2015-Feb-26 21:28N 40°39' W 074°07'0 0.0
2015-Feb-26 20:16N 40°39' W 074°07'0 0.0
2015-Feb-26 19:19N 40°39' W 074°07'0 0.0
2015-Feb-26 18:31N 40°39' W 074°07'0 0.0
2015-Feb-26 17:31N 40°39' W 074°07'0 0.0
2015-Feb-26 16:31N 40°39' W 074°07'0 0.0
2015-Feb-26 15:31N 40°39' W 074°07'0 0.0
2015-Feb-26 14:28N 40°39' W 074°07'0 0.0
2015-Feb-26 13:31N 40°39' W 074°07'0 0.0
2015-Feb-26 12:33N 40°39' W 074°07'0 0.0
2015-Feb-26 11:33N 40°39' W 074°07'0 0.0
2015-Feb-26 10:32N 40°39' W 074°07'0 0.0
2015-Feb-26 09:32N 40°39' W 074°07'0 0.0
2015-Feb-26 08:31N 40°39' W 074°07'0 0.0
2015-Feb-26 07:31N 40°39' W 074°07'3 2.6
2015-Feb-26 06:33N 40°39' W 074°03'7 6.6
2015-Feb-26 05:33N 40°46' W 074°01'10 4.9
2015-Feb-26 03:28N 40°55' W 073°55'  

Dump ship's entire track history